createdAt,value
2018-01-19T00:01:17.658Z,90.50
2018-01-19T00:02:54.942Z,90.10
2018-01-19T00:04:39.285Z,90.00
2018-01-19T00:06:15.718Z,89.40
2018-01-19T00:07:52.893Z,90.80
2018-01-19T00:09:30.145Z,90.50
2018-01-19T00:11:07.105Z,90.50
2018-01-19T00:12:43.698Z,90.20
2018-01-19T00:14:20.077Z,91.10
2018-01-19T00:15:57.683Z,91.20
2018-01-19T00:17:35.412Z,92.10
2018-01-19T00:19:11.834Z,92.00
2018-01-19T00:20:48.255Z,92.70
2018-01-19T00:22:25.314Z,93.10
2018-01-19T00:24:02.321Z,93.40
2018-01-19T00:25:38.828Z,93.30
2018-01-19T00:27:15.456Z,93.20
2018-01-19T00:28:53.797Z,93.70
2018-01-19T00:30:31.847Z,93.60
2018-01-19T00:32:08.664Z,93.10
2018-01-19T00:33:45.219Z,93.00
2018-01-19T00:35:21.603Z,92.70
2018-01-19T00:36:58.294Z,93.50
2018-01-19T00:38:34.748Z,93.40
2018-01-19T00:40:12.100Z,94.50
2018-01-19T00:41:48.447Z,94.50
2018-01-19T00:43:26.183Z,95.20
2018-01-19T00:45:06.251Z,93.60
2018-01-19T00:46:43.062Z,93.60
2018-01-19T00:48:19.516Z,93.30
2018-01-19T00:49:56.572Z,92.90
2018-01-19T00:51:32.915Z,93.20
2018-01-19T00:53:09.396Z,93.00
2018-01-19T00:54:45.931Z,93.30
2018-01-19T00:56:23.162Z,92.80
2018-01-19T00:58:01.146Z,92.80
2018-01-19T00:59:37.645Z,92.00
2018-01-19T01:01:14.550Z,91.40
2018-01-19T01:02:52.173Z,92.90
2018-01-19T01:04:28.691Z,92.90
2018-01-19T01:06:05.948Z,92.20
2018-01-19T01:07:42.532Z,92.10
2018-01-19T01:09:20.020Z,91.70
2018-01-19T01:10:56.464Z,91.10
2018-01-19T01:12:32.878Z,91.20
2018-01-19T01:14:09.322Z,91.00
2018-01-19T01:15:46.341Z,91.40
2018-01-19T01:17:24.012Z,93.60
2018-01-19T01:19:00.351Z,92.70
2018-01-19T01:20:36.767Z,92.10
2018-01-19T01:22:14.397Z,92.30
2018-01-19T01:23:50.936Z,92.30
2018-01-19T01:25:28.492Z,92.50
2018-01-19T01:27:04.976Z,92.80
2018-01-19T01:28:41.683Z,92.80
2018-01-19T01:30:18.197Z,92.70
2018-01-19T01:31:55.523Z,92.70
2018-01-19T01:33:31.938Z,92.70
2018-01-19T01:35:08.966Z,92.90
2018-01-19T01:36:45.491Z,93.70
2018-01-19T01:38:22.010Z,94.20
2018-01-19T01:39:58.592Z,94.20
2018-01-19T01:41:35.806Z,92.60
2018-01-19T01:43:12.407Z,92.60
2018-01-19T01:44:49.541Z,92.30
2018-01-19T01:46:26.600Z,93.20
2018-01-19T01:48:03.582Z,93.90
2018-01-19T01:49:40.172Z,93.40
2018-01-19T01:51:16.578Z,93.40
2018-01-19T01:52:53.026Z,93.70
2018-01-19T01:54:29.816Z,93.90
2018-01-19T01:56:06.273Z,94.00
2018-01-19T01:57:42.638Z,93.90
2018-01-19T01:59:18.987Z,95.10
2018-01-19T02:00:56.158Z,94.80
2018-01-19T02:02:36.189Z,94.50
2018-01-19T02:04:12.664Z,93.40
2018-01-19T02:05:49.430Z,92.40
2018-01-19T02:07:27.240Z,92.10
2018-01-19T02:09:06.840Z,92.40
2018-01-19T02:10:46.554Z,93.70
2018-01-19T02:12:26.306Z,94.40
2018-01-19T02:14:04.802Z,95.00
2018-01-19T02:15:42.003Z,94.60
2018-01-19T02:17:18.656Z,94.60
2018-01-19T02:18:55.040Z,94.70
2018-01-19T02:20:32.627Z,95.50
2018-01-19T02:22:09.082Z,95.50
2018-01-19T02:23:45.557Z,96.30
2018-01-19T02:25:22.063Z,95.50
2018-01-19T02:26:58.373Z,95.00
2018-01-19T02:28:34.678Z,94.30
2018-01-19T02:30:12.184Z,94.30
2018-01-19T02:31:49.872Z,93.90
2018-01-19T02:33:26.695Z,94.00
2018-01-19T02:35:03.152Z,94.00
2018-01-19T02:36:39.976Z,93.70
2018-01-19T02:38:16.344Z,93.80
2018-01-19T02:39:52.956Z,94.10
2018-01-19T02:41:29.768Z,93.50
2018-01-19T02:43:06.050Z,94.20
2018-01-19T02:44:42.359Z,94.40
2018-01-19T02:46:23.894Z,94.50
2018-01-19T02:48:00.267Z,93.50
2018-01-19T02:49:37.366Z,93.00
2018-01-19T02:51:13.768Z,92.90
2018-01-19T02:52:50.718Z,92.80
2018-01-19T02:54:27.599Z,92.90
2018-01-19T02:56:04.075Z,93.50
2018-01-19T02:57:41.762Z,95.10
2018-01-19T02:59:18.520Z,94.80
2018-01-19T03:00:55.360Z,94.60
2018-01-19T03:02:31.787Z,94.20
2018-01-19T03:04:08.264Z,93.70
2018-01-19T03:05:45.067Z,93.90
2018-01-19T03:07:23.901Z,93.70
2018-01-19T03:09:00.612Z,94.30
2018-01-19T03:10:37.077Z,93.50
2018-01-19T03:12:13.462Z,93.50
2018-01-19T03:13:50.638Z,92.50
2018-01-19T03:15:28.279Z,92.50
2018-01-19T03:17:04.652Z,93.10
2018-01-19T03:18:41.536Z,92.90
2018-01-19T03:20:18.088Z,93.70
2018-01-19T03:21:54.426Z,94.30
2018-01-19T03:23:30.847Z,94.60
2018-01-19T03:25:07.610Z,95.70
2018-01-19T03:26:44.031Z,96.20
2018-01-19T03:28:20.370Z,95.70
2018-01-19T03:29:57.599Z,95.80
2018-01-19T03:31:34.827Z,95.80
2018-01-19T03:33:11.169Z,96.10
2018-01-19T03:34:48.200Z,96.40
2018-01-19T03:36:25.548Z,96.60
2018-01-19T03:38:03.250Z,96.50
2018-01-19T03:39:40.446Z,96.70
2018-01-19T03:41:17.627Z,96.60
2018-01-19T03:42:55.616Z,96.60
2018-01-19T03:44:32.216Z,96.90
2018-01-19T03:46:09.699Z,96.60
2018-01-19T03:47:46.145Z,96.60
2018-01-19T03:49:23.408Z,96.10
2018-01-19T03:50:59.811Z,95.50
2018-01-19T03:52:36.390Z,95.40
2018-01-19T03:54:12.774Z,95.60
2018-01-19T03:55:50.180Z,95.60
2018-01-19T03:57:26.558Z,95.60
2018-01-19T03:59:02.849Z,95.70
2018-01-19T04:00:39.198Z,95.90
2018-01-19T04:02:16.028Z,95.00
2018-01-19T04:03:52.391Z,94.80
2018-01-19T04:05:29.568Z,94.90
2018-01-19T04:07:05.986Z,94.90
2018-01-19T04:08:42.812Z,94.30
2018-01-19T04:10:19.974Z,95.20
2018-01-19T04:11:56.397Z,95.20
2018-01-19T04:13:32.818Z,94.70
2018-01-19T04:15:09.611Z,94.70
2018-01-19T04:16:46.174Z,94.60
2018-01-19T04:18:22.662Z,94.90
2018-01-19T04:19:59.025Z,94.90
2018-01-19T04:21:36.016Z,94.70
2018-01-19T04:23:12.929Z,95.10
2018-01-19T04:24:49.870Z,94.20
2018-01-19T04:26:26.324Z,94.10
2018-01-19T04:28:02.665Z,94.60
2018-01-19T04:29:40.123Z,94.50
2018-01-19T04:31:17.579Z,94.30
2018-01-19T04:32:54.006Z,94.00
2018-01-19T04:34:31.164Z,94.60
2018-01-19T04:36:07.560Z,94.80
2018-01-19T04:37:45.066Z,95.90
2018-01-19T04:39:21.823Z,95.70
2018-01-19T04:40:58.529Z,95.30
2018-01-19T04:42:35.607Z,95.50
2018-01-19T04:44:12.007Z,95.50
2018-01-19T04:45:49.634Z,95.40
2018-01-19T04:47:26.706Z,95.40
2018-01-19T04:49:03.009Z,95.20
2018-01-19T04:50:39.318Z,95.70
2018-01-19T04:52:16.246Z,95.10
2018-01-19T04:53:53.634Z,94.90
2018-01-19T04:55:30.693Z,95.60
2018-01-19T04:57:07.196Z,95.60
2018-01-19T04:58:43.683Z,95.30
2018-01-19T05:00:21.050Z,95.10
2018-01-19T05:01:57.421Z,95.10
2018-01-19T05:03:34.609Z,94.70
2018-01-19T05:05:11.035Z,94.70
2018-01-19T05:06:47.758Z,95.50
2018-01-19T05:08:24.207Z,94.70
2018-01-19T05:10:01.253Z,95.00
2018-01-19T05:11:37.659Z,95.00
2018-01-19T05:13:14.060Z,94.90
2018-01-19T05:14:50.371Z,94.90
2018-01-19T05:16:28.646Z,96.00
2018-01-19T05:18:04.984Z,96.00
2018-01-19T05:19:41.726Z,95.30
2018-01-19T05:21:18.529Z,95.40
2018-01-19T05:22:54.895Z,94.40
2018-01-19T05:24:31.486Z,94.10
2018-01-19T05:26:08.042Z,94.90
2018-01-19T05:27:45.214Z,95.30
2018-01-19T05:29:23.051Z,95.20
2018-01-19T05:31:00.048Z,96.50
2018-01-19T05:32:37.482Z,96.50
2018-01-19T05:34:13.887Z,96.50
2018-01-19T05:35:50.277Z,96.90
2018-01-19T05:37:27.253Z,96.60
2018-01-19T05:39:04.097Z,96.10
2018-01-19T05:40:40.501Z,96.10
2018-01-19T05:42:16.980Z,95.50
2018-01-19T05:43:53.530Z,95.10
2018-01-19T05:45:30.265Z,95.00
2018-01-19T05:47:06.797Z,95.50
2018-01-19T05:48:43.808Z,96.20
2018-01-19T05:50:21.042Z,97.50
2018-01-19T05:51:57.746Z,97.50
2018-01-19T05:53:34.179Z,98.00
2018-01-19T05:55:10.625Z,96.60
2018-01-19T05:56:47.012Z,96.70
2018-01-19T05:58:24.215Z,95.70
2018-01-19T06:00:00.541Z,95.40
2018-01-19T06:01:37.010Z,95.50
2018-01-19T06:03:13.797Z,95.60
2018-01-19T06:04:50.487Z,95.40
2018-01-19T06:06:26.832Z,96.00
2018-01-19T06:08:09.622Z,95.60
2018-01-19T06:09:46.070Z,95.60
2018-01-19T06:11:22.727Z,95.90
2018-01-19T06:12:59.173Z,95.80
2018-01-19T06:14:36.887Z,95.80
2018-01-19T06:16:13.388Z,95.70
2018-01-19T06:17:51.400Z,95.00
2018-01-19T06:19:27.945Z,94.90
2018-01-19T06:21:04.310Z,95.00
2018-01-19T06:22:40.623Z,94.80
2018-01-19T06:24:17.435Z,94.00
2018-01-19T06:25:53.823Z,94.40
2018-01-19T06:27:30.134Z,93.80
2018-01-19T06:29:06.621Z,93.80
2018-01-19T06:30:43.391Z,93.70
2018-01-19T06:32:20.562Z,94.00
2018-01-19T06:33:57.136Z,94.00
2018-01-19T06:35:33.769Z,94.10
2018-01-19T06:37:16.131Z,93.90
2018-01-19T06:38:52.988Z,94.10
2018-01-19T06:40:29.369Z,94.60
2018-01-19T06:42:06.660Z,95.40
2018-01-19T06:43:43.453Z,95.30
2018-01-19T06:45:20.012Z,95.00
2018-01-19T06:46:56.575Z,94.70
2018-01-19T06:48:32.888Z,95.00
2018-01-19T06:50:09.342Z,95.30
2018-01-19T06:51:45.685Z,96.10
2018-01-19T06:53:23.172Z,95.40
2018-01-19T06:55:00.415Z,95.40
2018-01-19T06:56:37.092Z,95.40
2018-01-19T06:58:13.460Z,95.70
2018-01-19T06:59:50.057Z,96.30
2018-01-19T07:01:26.495Z,95.30
2018-01-19T07:03:03.091Z,95.50
2018-01-19T07:04:39.600Z,95.50
2018-01-19T07:06:16.014Z,94.80
2018-01-19T07:07:53.223Z,94.90
2018-01-19T07:09:29.630Z,94.90
2018-01-19T07:11:06.238Z,95.30
2018-01-19T07:12:43.704Z,95.00
2018-01-19T07:14:20.272Z,95.00
2018-01-19T07:15:57.328Z,94.90
2018-01-19T07:17:33.809Z,95.50
2018-01-19T07:19:10.395Z,94.60
2018-01-19T07:20:46.737Z,95.20
2018-01-19T07:22:24.237Z,96.30
2018-01-19T07:24:01.404Z,96.40
2018-01-19T07:25:37.827Z,96.40
2018-01-19T07:27:14.191Z,97.10
2018-01-19T07:28:50.997Z,96.30
2018-01-19T07:30:27.454Z,96.70
2018-01-19T07:32:03.861Z,97.30
2018-01-19T07:33:40.414Z,96.60
2018-01-19T07:35:17.197Z,95.60
2018-01-19T07:36:54.465Z,94.20
2018-01-19T07:38:31.863Z,93.30
2018-01-19T07:40:08.393Z,93.30
2018-01-19T07:41:45.049Z,93.60
2018-01-19T07:43:21.648Z,93.50
2018-01-19T07:44:59.092Z,95.30
2018-01-19T07:46:35.853Z,95.30
2018-01-19T07:48:12.568Z,95.50
2018-01-19T07:49:48.860Z,95.50
2018-01-19T07:51:25.292Z,96.20
2018-01-19T07:53:01.764Z,94.90
2018-01-19T07:54:38.924Z,93.90
2018-01-19T07:56:15.279Z,93.90
2018-01-19T07:57:51.664Z,94.20
2018-01-19T07:59:28.252Z,94.80
2018-01-19T08:01:05.733Z,95.60
2018-01-19T08:02:42.249Z,95.60
2018-01-19T08:04:18.714Z,95.90
2018-01-19T08:05:55.511Z,96.60
2018-01-19T08:07:41.096Z,96.30
2018-01-19T08:09:17.511Z,95.70
2018-01-19T08:10:53.956Z,95.30
2018-01-19T08:12:30.351Z,96.20
2018-01-19T08:14:07.045Z,96.10
2018-01-19T08:15:43.539Z,96.90
2018-01-19T08:17:20.720Z,96.60
2018-01-19T08:18:58.109Z,97.20
2018-01-19T08:20:34.980Z,97.20
2018-01-19T08:22:11.531Z,96.90
2018-01-19T08:23:47.981Z,96.40
2018-01-19T08:25:25.231Z,96.70
2018-01-19T08:27:02.140Z,96.70
2018-01-19T08:28:38.581Z,95.50
2018-01-19T08:30:17.356Z,94.00
2018-01-19T08:31:54.607Z,93.50
2018-01-19T08:33:31.446Z,93.50
2018-01-19T08:35:07.779Z,94.30
2018-01-19T08:36:53.403Z,95.60
2018-01-19T08:38:29.830Z,96.20
2018-01-19T08:40:06.315Z,95.20
2018-01-19T08:41:42.725Z,95.20
2018-01-19T08:43:20.570Z,95.90
2018-01-19T08:44:57.000Z,95.90
2018-01-19T08:46:34.253Z,96.10
2018-01-19T08:48:10.652Z,96.10
2018-01-19T08:49:48.462Z,94.10
2018-01-19T08:51:24.936Z,94.10
2018-01-19T08:53:01.978Z,94.80
2018-01-19T08:54:38.419Z,94.20
2018-01-19T08:56:15.562Z,94.00
2018-01-19T08:57:52.227Z,94.00
2018-01-19T08:59:29.402Z,93.20
2018-01-19T09:01:05.906Z,92.70
2018-01-19T09:02:42.385Z,93.00
2018-01-19T09:04:19.664Z,94.50
2018-01-19T09:05:57.349Z,95.20
2018-01-19T09:07:33.759Z,95.20
2018-01-19T09:09:11.152Z,94.90
2018-01-19T09:10:47.665Z,94.90
2018-01-19T09:12:25.684Z,94.90
2018-01-19T09:14:02.244Z,93.50
2018-01-19T09:15:39.542Z,93.10
2018-01-19T09:17:16.271Z,93.00
2018-01-19T09:18:52.785Z,93.30
2018-01-19T09:20:29.883Z,92.60
2018-01-19T09:22:06.364Z,92.60
2018-01-19T09:23:42.795Z,92.20
2018-01-19T09:25:19.273Z,91.50
2018-01-19T09:26:55.930Z,90.60
2018-01-19T09:28:32.290Z,90.00
2018-01-19T09:30:08.864Z,91.10
2018-01-19T09:31:45.396Z,90.80
2018-01-19T09:33:22.013Z,91.00
2018-01-19T09:34:58.637Z,91.40
2018-01-19T09:36:35.233Z,91.10
2018-01-19T09:38:12.507Z,90.90
2018-01-19T09:39:49.056Z,91.50
2018-01-19T09:41:25.561Z,92.20
2018-01-19T09:43:02.019Z,91.50
2018-01-19T09:44:38.728Z,90.40
2018-01-19T09:46:15.506Z,91.20
2018-01-19T09:47:52.177Z,92.60
2018-01-19T09:49:28.609Z,93.30
2018-01-19T09:51:06.584Z,93.30
2018-01-19T09:52:43.796Z,92.20
2018-01-19T09:54:20.345Z,92.20
2018-01-19T09:55:56.788Z,91.80
2018-01-19T09:57:33.636Z,91.70
2018-01-19T09:59:10.788Z,90.90
2018-01-19T10:00:47.587Z,90.90
2018-01-19T10:02:24.102Z,90.60
2018-01-19T10:04:01.141Z,91.50
2018-01-19T10:05:37.870Z,90.80
2018-01-19T10:07:14.994Z,90.40
2018-01-19T10:08:51.530Z,91.10
2018-01-19T10:10:28.915Z,90.80
2018-01-19T10:12:06.047Z,90.90
2018-01-19T10:13:42.550Z,90.90
2018-01-19T10:15:19.082Z,90.60
2018-01-19T10:16:56.104Z,90.00
2018-01-19T10:18:32.655Z,89.30
2018-01-19T10:20:09.176Z,89.30
2018-01-19T10:21:46.566Z,90.70
2018-01-19T10:23:24.787Z,90.00
2018-01-19T10:25:01.227Z,90.00
2018-01-19T10:26:38.480Z,90.20
2018-01-19T10:28:14.864Z,90.20
2018-01-19T10:29:51.750Z,90.00
2018-01-19T10:31:29.962Z,90.90
2018-01-19T10:33:06.536Z,90.80
2018-01-19T10:34:43.142Z,90.50
2018-01-19T10:36:19.945Z,90.40
2018-01-19T10:37:56.499Z,89.90
2018-01-19T10:39:33.020Z,90.30
2018-01-19T10:41:09.701Z,91.10
2018-01-19T10:42:46.668Z,91.10
2018-01-19T10:44:23.671Z,91.00
2018-01-19T10:46:00.924Z,90.80
2018-01-19T10:47:37.274Z,90.80
2018-01-19T10:49:14.176Z,90.50
2018-01-19T10:50:50.637Z,90.60
2018-01-19T10:52:27.305Z,89.50
2018-01-19T10:54:03.823Z,88.20
2018-01-19T10:55:41.548Z,87.90
2018-01-19T10:57:18.133Z,88.60
2018-01-19T10:58:54.656Z,90.20
2018-01-19T11:00:31.222Z,90.10
2018-01-19T11:02:08.226Z,90.50
2018-01-19T11:03:44.682Z,89.80
2018-01-19T11:07:05.319Z,90.70
2018-01-19T11:08:42.267Z,91.50
2018-01-19T11:10:19.523Z,90.60
2018-01-19T11:11:56.928Z,90.00
2018-01-19T11:13:34.015Z,89.10
2018-01-19T11:15:11.696Z,87.70
2018-01-19T11:16:50.237Z,87.60
2018-01-19T11:18:27.419Z,87.50
2018-01-19T11:20:04.136Z,87.40
2018-01-19T11:21:41.068Z,88.90
2018-01-19T11:23:17.968Z,87.50
2018-01-19T11:24:56.290Z,84.90
2018-01-19T11:26:32.663Z,84.90
2018-01-19T11:28:09.705Z,86.50
2018-01-19T11:29:48.828Z,86.30
2018-01-19T11:31:25.982Z,87.40
2018-01-19T11:33:02.391Z,87.40
2018-01-19T11:34:39.542Z,88.70
2018-01-19T11:39:10.560Z,86.00
2018-01-19T11:40:47.884Z,85.40
2018-01-19T11:42:24.304Z,87.60
2018-01-19T11:44:00.641Z,88.00
2018-01-19T11:45:37.456Z,89.10
2018-01-19T11:47:14.759Z,89.80
2018-01-19T11:48:52.338Z,89.70
2018-01-19T11:50:28.982Z,89.30
2018-01-19T11:52:05.630Z,90.40
2018-01-19T11:53:43.239Z,89.80
2018-01-19T11:55:19.944Z,88.80
2018-01-19T11:56:56.392Z,87.90
2018-01-19T11:58:32.826Z,86.90
2018-01-19T12:00:10.452Z,84.20
2018-01-19T12:01:47.509Z,84.10
2018-01-19T12:03:25.119Z,86.20
2018-01-19T12:05:02.384Z,85.70
2018-01-19T12:06:40.367Z,84.00
2018-01-19T12:08:17.545Z,85.10
2018-01-19T12:09:54.635Z,86.70
2018-01-19T12:11:31.036Z,86.50
2018-01-19T12:13:07.621Z,87.20
2018-01-19T12:14:43.929Z,88.00
2018-01-19T12:16:20.433Z,86.20
2018-01-19T12:17:56.717Z,86.40
2018-01-19T12:19:33.463Z,87.00
2018-01-19T12:21:09.945Z,88.90
2018-01-19T12:22:47.433Z,88.20
2018-01-19T12:24:24.395Z,87.20
2018-01-19T12:26:28.328Z,84.50
2018-01-19T12:28:07.950Z,84.50
2018-01-19T12:29:45.419Z,86.20
2018-01-19T12:31:23.271Z,86.00
2018-01-19T12:32:59.798Z,85.90
2018-01-19T12:34:37.205Z,87.80
2018-01-19T12:36:13.661Z,87.70
2018-01-19T12:37:50.434Z,88.00
2018-01-19T12:39:26.902Z,87.70
2018-01-19T12:41:03.500Z,87.80
2018-01-19T12:42:40.201Z,87.60
2018-01-19T12:44:17.096Z,86.00
2018-01-19T12:45:54.783Z,86.00
2018-01-19T12:47:31.388Z,86.00
2018-01-19T12:49:07.877Z,86.40
2018-01-19T12:50:44.642Z,86.80
2018-01-19T12:52:21.171Z,88.20
2018-01-19T12:53:57.693Z,88.30
2018-01-19T12:55:34.063Z,87.50
2018-01-19T12:57:11.736Z,87.10
2018-01-19T12:58:48.188Z,87.20
2018-01-19T13:00:27.587Z,88.50
2018-01-19T13:02:04.331Z,89.30
2018-01-19T13:03:41.023Z,88.00
2018-01-19T13:05:17.405Z,86.40
2018-01-19T13:06:54.221Z,86.50
2018-01-19T13:08:30.715Z,85.70
2018-01-19T13:10:07.709Z,84.10
2018-01-19T13:11:46.157Z,82.90
2018-01-19T13:13:24.155Z,81.30
2018-01-19T13:15:00.983Z,82.60
2018-01-19T13:16:38.159Z,81.70
2018-01-19T13:18:14.451Z,82.20
2018-01-19T13:19:50.874Z,81.30
2018-01-19T13:21:28.035Z,81.70
2018-01-19T13:23:05.847Z,81.20
2018-01-19T13:24:43.064Z,80.00
2018-01-19T13:26:20.280Z,80.00
2018-01-19T13:27:58.417Z,79.00
2018-01-19T13:29:34.777Z,80.10
2018-01-19T13:31:11.445Z,79.60
2018-01-19T13:32:48.196Z,77.90
2018-01-19T13:34:25.864Z,77.50
2018-01-19T13:36:03.054Z,78.00
2018-01-19T13:37:39.624Z,78.00
2018-01-19T13:39:17.079Z,76.70
2018-01-19T13:40:53.846Z,78.70
2018-01-19T13:42:31.378Z,78.90
2018-01-19T13:44:09.161Z,78.60
2018-01-19T13:45:48.540Z,81.20
2018-01-19T13:47:26.736Z,81.20
2018-01-19T13:49:04.183Z,82.70
2018-01-19T13:50:41.832Z,80.70
2018-01-19T13:52:19.236Z,80.70
2018-01-19T13:53:56.656Z,80.00
2018-01-19T13:55:33.539Z,79.20
2018-01-19T13:57:11.469Z,78.30
2018-01-19T13:58:49.942Z,76.50
2018-01-19T14:00:30.220Z,75.80
2018-01-19T14:02:09.121Z,74.20
2018-01-19T14:03:46.585Z,76.60
2018-01-19T14:05:23.768Z,75.20
2018-01-19T14:07:01.032Z,75.20
2018-01-19T14:08:38.356Z,75.20
2018-01-19T14:10:17.298Z,75.30
2018-01-19T14:11:54.024Z,76.40
2018-01-19T14:13:30.508Z,77.40
2018-01-19T14:15:10.335Z,78.00
2018-01-19T14:16:47.355Z,78.00
2018-01-19T14:18:24.529Z,78.30
2018-01-19T14:20:03.908Z,77.80
2018-01-19T14:21:43.931Z,78.60
2018-01-19T14:23:21.811Z,77.70
2018-01-19T14:25:00.545Z,76.50
2018-01-19T14:26:39.884Z,76.50
2018-01-19T14:28:18.976Z,76.60
2018-01-19T14:29:56.205Z,74.90
2018-01-19T14:31:37.265Z,73.80
2018-01-19T14:33:14.226Z,73.80
2018-01-19T14:34:52.243Z,74.50
2018-01-19T14:36:30.781Z,74.50
2018-01-19T14:38:08.078Z,72.80
2018-01-19T14:39:45.232Z,75.10
2018-01-19T14:41:23.094Z,75.90
2018-01-19T14:43:01.586Z,75.90
2018-01-19T14:44:39.373Z,75.30
2018-01-19T14:46:16.084Z,73.90
2018-01-19T14:47:54.931Z,74.50
2018-01-19T14:49:33.230Z,76.30
2018-01-19T14:51:13.875Z,75.60
2018-01-19T14:52:54.179Z,76.90
2018-01-19T14:54:33.932Z,75.70
2018-01-19T14:56:11.398Z,74.90
2018-01-19T14:57:51.125Z,75.80
2018-01-19T14:59:30.456Z,77.00
2018-01-19T15:01:09.924Z,77.00
2018-01-19T15:02:48.548Z,73.90
2018-01-19T15:04:26.888Z,74.20
2018-01-19T15:06:05.610Z,75.20
2018-01-19T15:07:42.891Z,77.00
2018-01-19T15:09:22.982Z,77.30
2018-01-19T15:11:04.415Z,77.30
2018-01-19T15:12:45.304Z,75.40
2018-01-19T15:14:25.137Z,75.80
2018-01-19T15:16:06.857Z,74.80
2018-01-19T15:17:46.756Z,76.40
2018-01-19T15:19:28.148Z,76.10
2018-01-19T15:21:10.147Z,77.70
2018-01-19T15:22:51.424Z,75.70
2018-01-19T15:24:31.358Z,75.70
2018-01-19T15:26:13.609Z,75.20
2018-01-19T15:27:54.704Z,75.20
2018-01-19T15:29:36.352Z,76.60
2018-01-19T15:31:18.037Z,77.20
2018-01-19T15:32:57.118Z,77.10
2018-01-19T15:34:35.197Z,75.60
2018-01-19T15:36:13.759Z,76.00
2018-01-19T15:37:55.307Z,75.80
2018-01-19T15:39:34.801Z,74.70
2018-01-19T15:41:12.791Z,74.80
2018-01-19T15:42:54.587Z,74.20
2018-01-19T15:44:35.356Z,74.70
2018-01-19T15:46:18.844Z,76.10
2018-01-19T15:48:05.032Z,78.00
2018-01-19T15:49:45.971Z,77.90
2018-01-19T15:51:27.867Z,77.80
2018-01-19T15:53:12.068Z,78.10
2018-01-19T15:54:51.158Z,78.40
2018-01-19T15:56:30.897Z,79.40
2018-01-19T15:58:10.558Z,77.50
2018-01-19T15:59:48.096Z,77.50
2018-01-19T16:01:29.753Z,76.30
2018-01-19T16:03:11.419Z,78.70
2018-01-19T16:04:50.656Z,78.70
2018-01-19T16:06:29.090Z,78.70
2018-01-19T16:08:07.850Z,77.00
2018-01-19T16:09:47.496Z,76.90
2018-01-19T16:11:27.860Z,76.70
2018-01-19T16:13:07.879Z,78.40
2018-01-19T16:14:49.209Z,77.00
2018-01-19T16:16:31.308Z,77.80
2018-01-19T16:18:13.619Z,78.60
2018-01-19T16:19:55.268Z,78.20
2018-01-19T16:21:36.746Z,78.10
2018-01-19T16:23:20.568Z,77.50
2018-01-19T16:25:00.239Z,77.40
2018-01-19T16:26:39.933Z,78.60
2018-01-19T16:28:19.944Z,78.50
2018-01-19T16:29:58.825Z,79.40
2018-01-19T16:31:40.642Z,77.70
2018-01-19T16:33:20.257Z,78.30
2018-01-19T16:34:58.922Z,77.00
2018-01-19T16:36:38.836Z,75.80
2018-01-19T16:38:21.574Z,74.90
2018-01-19T16:40:00.732Z,74.00
2018-01-19T16:41:41.657Z,73.90
2018-01-19T16:43:20.794Z,73.90
2018-01-19T16:45:01.441Z,74.80
2018-01-19T16:46:45.839Z,73.90
2018-01-19T16:48:24.056Z,74.30
2018-01-19T16:50:04.827Z,75.70
2018-01-19T16:51:47.998Z,75.90
2018-01-19T16:53:31.323Z,76.20
2018-01-19T16:55:12.080Z,77.10
2018-01-19T16:56:54.285Z,77.10
2018-01-19T16:58:37.483Z,77.50
2018-01-19T17:00:20.943Z,78.20
2018-01-19T17:02:04.111Z,78.90
2018-01-19T17:03:47.311Z,76.10
2018-01-19T17:05:30.231Z,74.50
2018-01-19T17:07:11.110Z,73.80
2018-01-19T17:08:54.734Z,72.70
2018-01-19T17:10:35.470Z,72.70
2018-01-19T17:12:15.023Z,75.70
2018-01-19T17:13:54.606Z,75.70
2018-01-19T17:15:33.618Z,74.60
2018-01-19T17:17:14.606Z,74.30
2018-01-19T17:18:53.690Z,74.30
2018-01-19T17:20:34.910Z,74.60
2018-01-19T17:22:14.447Z,76.00
2018-01-19T17:23:55.448Z,76.20
2018-01-19T17:25:35.972Z,74.80
2018-01-19T17:27:15.319Z,73.80
2018-01-19T17:28:56.718Z,73.10
2018-01-19T17:30:41.544Z,73.10
2018-01-19T17:32:22.032Z,73.30
2018-01-19T17:34:03.167Z,73.40
2018-01-19T17:35:49.233Z,74.10
2018-01-19T17:37:30.148Z,75.90
2018-01-19T17:39:11.475Z,75.10
2018-01-19T17:42:41.677Z,76.90
2018-01-19T17:44:23.980Z,77.10
2018-01-19T17:46:05.524Z,76.90
2018-01-19T17:47:47.890Z,75.60
2018-01-19T17:49:28.685Z,75.60
2018-01-19T17:51:09.659Z,75.70
2018-01-19T17:52:50.761Z,76.70
2018-01-19T17:54:31.516Z,77.20
2018-01-19T17:56:13.436Z,75.70
2018-01-19T17:57:53.149Z,76.00
2018-01-19T17:59:33.226Z,76.10
2018-01-19T18:01:14.667Z,76.90
2018-01-19T18:02:57.621Z,75.60
2018-01-19T18:04:41.488Z,74.50
2018-01-19T18:06:22.832Z,73.60
2018-01-19T18:08:07.233Z,74.70
2018-01-19T18:09:48.847Z,75.90
2018-01-19T18:11:29.881Z,74.60
2018-01-19T18:13:11.266Z,74.60
2018-01-19T18:14:53.020Z,74.20
2018-01-19T18:16:36.352Z,74.10
2018-01-19T18:18:17.631Z,75.20
2018-01-19T18:19:58.747Z,75.20
2018-01-19T18:21:42.291Z,76.60
2018-01-19T18:23:24.350Z,77.10
2018-01-19T18:25:07.329Z,77.10
2018-01-19T18:26:49.641Z,77.50
2018-01-19T18:28:31.676Z,76.30
2018-01-19T18:30:15.909Z,77.10
2018-01-19T18:31:59.074Z,75.30
2018-01-19T18:33:41.437Z,75.20
2018-01-19T18:35:24.713Z,75.20
2018-01-19T18:37:09.653Z,77.30
2018-01-19T18:38:52.846Z,76.80
2018-01-19T18:40:34.934Z,76.40
2018-01-19T18:42:16.057Z,76.20
2018-01-19T18:43:58.176Z,76.60
2018-01-19T18:45:41.617Z,76.70
2018-01-19T18:47:22.673Z,77.20
2018-01-19T18:49:06.054Z,77.60
2018-01-19T18:50:47.360Z,78.10
2018-01-19T18:52:28.692Z,78.20
2018-01-19T18:54:11.415Z,79.30
2018-01-19T18:55:54.934Z,77.50
2018-01-19T18:57:37.709Z,77.50
2018-01-19T18:59:21.245Z,77.40
2018-01-19T19:01:02.947Z,78.00
2018-01-19T19:02:44.450Z,79.20
2018-01-19T19:04:26.157Z,80.30
2018-01-19T19:06:06.630Z,80.00
2018-01-19T19:07:48.890Z,78.80
2018-01-19T19:09:32.404Z,78.70
2018-01-19T19:11:14.618Z,78.80
2018-01-19T19:12:55.717Z,77.70
2018-01-19T19:14:37.613Z,76.70
2018-01-19T19:16:20.143Z,76.70
2018-01-19T19:18:01.840Z,76.90
2018-01-19T19:19:43.369Z,76.40
2018-01-19T19:21:26.431Z,78.00
2018-01-19T19:23:10.140Z,80.50
2018-01-19T19:24:57.462Z,79.70
2018-01-19T19:26:42.903Z,79.90
2018-01-19T19:28:25.939Z,79.90
2018-01-19T19:30:06.776Z,79.20
2018-01-19T19:31:48.232Z,79.60
2018-01-19T19:33:29.484Z,80.00
2018-01-19T19:35:10.573Z,80.10
2018-01-19T19:36:51.479Z,78.80
2018-01-19T19:38:31.925Z,79.10
2018-01-19T19:40:10.148Z,79.00
2018-01-19T19:41:48.319Z,77.80
2018-01-19T19:43:27.246Z,78.40
2018-01-19T19:45:04.205Z,77.90
2018-01-19T19:46:44.029Z,79.70
2018-01-19T19:48:22.593Z,79.40
2018-01-19T19:50:02.484Z,77.90
2018-01-19T19:51:43.623Z,77.70
2018-01-19T19:53:37.616Z,78.10
2018-01-19T19:55:16.457Z,78.40
2018-01-19T19:56:54.684Z,77.10
2018-01-19T19:58:34.106Z,76.80
2018-01-19T20:00:12.148Z,76.80
2018-01-19T20:01:53.446Z,77.00
2018-01-19T20:03:31.777Z,77.50
2018-01-19T20:05:08.553Z,77.40
2018-01-19T20:06:46.446Z,78.70
2018-01-19T20:08:24.107Z,81.00
2018-01-19T20:10:02.661Z,82.40
2018-01-19T20:11:41.302Z,80.80
2018-01-19T20:13:21.599Z,79.00
2018-01-19T20:14:59.470Z,79.80
2018-01-19T20:16:39.203Z,78.60
2018-01-19T20:18:19.099Z,79.10
2018-01-19T20:19:58.388Z,78.80
2018-01-19T20:21:36.722Z,79.50
2018-01-19T20:23:15.547Z,81.50
2018-01-19T20:24:55.959Z,80.10
2018-01-19T20:26:36.740Z,80.10
2018-01-19T20:28:14.792Z,80.30
2018-01-19T20:29:52.637Z,80.30
2018-01-19T20:31:30.357Z,80.90
2018-01-19T20:33:10.596Z,80.70
2018-01-19T20:34:48.167Z,81.40
2018-01-19T20:36:27.120Z,80.30
2018-01-19T20:38:07.358Z,79.80
2018-01-19T20:39:45.057Z,79.60
2018-01-19T20:41:26.487Z,84.00
2018-01-19T20:43:03.584Z,84.20
2018-01-19T20:44:40.784Z,84.20
2018-01-19T20:46:18.297Z,84.50
2018-01-19T20:47:55.736Z,83.60
2018-01-19T20:49:32.509Z,82.80
2018-01-19T20:51:09.855Z,84.30
2018-01-19T20:52:46.627Z,85.00
2018-01-19T20:54:23.209Z,84.70
2018-01-19T20:56:01.442Z,86.10
2018-01-19T20:57:39.135Z,86.60
2018-01-19T20:59:15.990Z,87.20
2018-01-19T21:00:52.932Z,88.20
2018-01-19T21:02:29.980Z,87.20
2018-01-19T21:04:07.565Z,87.80
2018-01-19T21:05:44.337Z,86.40
2018-01-19T21:07:21.877Z,85.40
2018-01-19T21:08:59.319Z,83.10
2018-01-19T21:10:36.553Z,83.10